Time;durP1;ratioP1;P1;durP2;ratioP2;P2;SDS_P1;SDS_P2;PMS_P1;PMS_P2;Temp;Humidity;BMP_temperature;BMP_pressure;BME280_temperature;BME280_humidity;BME280_pressure;Samples;Min_cycle;Max_cycle;Signal;HPM_P1;HPM_P2
2021/11/14 00:01:04;;;;;;;19.52;16.70;;;11.40;99.90;;;;;;2071974;28;20029;-71
2021/11/14 00:02:05;;;;;;;18.48;16.58;;;11.40;99.90;;;;;;2071736;28;20481;-71
2021/11/14 00:03:05;;;;;;;19.25;17.23;;;11.40;99.90;;;;;;2071310;28;20344;-71
2021/11/14 00:04:11;;;;;;;19.65;17.67;;;11.40;99.90;;;;;;2071727;28;20088;-71
2021/11/14 00:05:12;;;;;;;20.00;17.90;;;11.40;99.90;;;;;;2071918;28;20052;-70
2021/11/14 00:06:12;;;;;;;17.52;15.73;;;11.40;99.90;;;;;;2071535;28;20034;-71
2021/11/14 00:07:14;;;;;;;19.23;16.98;;;11.40;99.90;;;;;;2072140;28;20030;-71
2021/11/14 00:08:16;;;;;;;19.65;17.65;;;11.50;99.90;;;;;;2070884;28;20022;-71
2021/11/14 00:09:17;;;;;;;19.48;17.48;;;11.50;99.90;;;;;;2071890;28;20026;-70
2021/11/14 00:10:18;;;;;;;20.95;18.05;;;11.50;99.90;;;;;;2071635;28;20079;-70
2021/11/14 00:11:20;;;;;;;19.05;16.02;;;11.50;99.90;;;;;;2071648;28;20041;-70
2021/11/14 00:12:20;;;;;;;16.52;14.88;;;11.50;99.90;;;;;;2071948;28;20378;-70
2021/11/14 00:13:22;;;;;;;17.42;15.18;;;11.50;99.90;;;;;;2072158;28;20419;-71
2021/11/14 00:14:23;;;;;;;17.33;15.63;;;11.50;99.90;;;;;;2068511;28;20521;-71
2021/11/14 00:15:24;;;;;;;19.10;16.48;;;11.50;99.90;;;;;;2071483;28;20483;-71
2021/11/14 00:16:26;;;;;;;17.75;15.90;;;11.50;99.90;;;;;;2071402;28;20386;-71
2021/11/14 00:17:27;;;;;;;17.73;15.82;;;11.50;99.90;;;;;;2071044;28;20029;-71
2021/11/14 00:18:28;;;;;;;19.58;17.30;;;11.50;99.90;;;;;;2071319;28;20076;-70
2021/11/14 00:19:29;;;;;;;19.65;17.13;;;11.50;99.90;;;;;;2071872;28;20025;-70
2021/11/14 00:20:30;;;;;;;18.05;16.13;;;11.50;99.90;;;;;;2071851;28;20030;-70
2021/11/14 00:21:31;;;;;;;18.20;16.38;;;11.50;99.90;;;;;;2071768;28;20033;-71
2021/11/14 00:22:32;;;;;;;17.45;15.70;;;11.50;99.90;;;;;;2071547;28;20026;-71
2021/11/14 00:23:33;;;;;;;18.73;16.55;;;11.50;99.90;;;;;;2071459;28;20525;-71
2021/11/14 00:24:34;;;;;;;19.42;16.90;;;11.50;99.90;;;;;;2072060;28;20370;-71
2021/11/14 00:25:35;;;;;;;17.60;15.85;;;11.50;99.90;;;;;;2071662;28;20044;-71
2021/11/14 00:26:36;;;;;;;16.77;15.18;;;11.50;99.90;;;;;;2071024;28;20041;-70
2021/11/14 00:27:36;;;;;;;17.98;16.17;;;11.50;99.90;;;;;;2071645;28;20024;-71
2021/11/14 00:28:41;;;;;;;17.48;15.32;;;11.50;99.90;;;;;;2069888;28;20107;-70
2021/11/14 00:29:42;;;;;;;16.30;14.73;;;11.50;99.90;;;;;;2071900;28;20022;-71
2021/11/14 00:30:43;;;;;;;17.48;14.85;;;11.50;99.90;;;;;;2071626;28;20045;-71
2021/11/14 00:31:44;;;;;;;15.95;14.45;;;11.50;99.90;;;;;;2070342;28;20394;-71
2021/11/14 00:32:45;;;;;;;15.18;13.70;;;11.50;99.90;;;;;;2071786;28;20014;-71
2021/11/14 00:33:47;;;;;;;17.17;14.05;;;11.50;99.90;;;;;;2070928;28;20406;-71
2021/11/14 00:34:50;;;;;;;16.17;13.85;;;11.50;99.90;;;;;;2070878;28;20060;-71
2021/11/14 00:35:52;;;;;;;15.45;13.95;;;11.50;99.90;;;;;;2063178;28;20486;-71
2021/11/14 00:36:54;;;;;;;14.93;13.38;;;11.50;99.90;;;;;;2068775;28;20053;-71
2021/11/14 00:37:55;;;;;;;15.23;13.32;;;11.50;99.90;;;;;;2071212;28;20064;-71
2021/11/14 00:38:56;;;;;;;14.77;13.38;;;11.50;99.90;;;;;;2070982;28;20422;-71
2021/11/14 00:39:56;;;;;;;13.68;12.27;;;11.50;99.90;;;;;;2066835;28;20085;-71
2021/11/14 00:40:57;;;;;;;13.52;12.25;;;11.50;99.90;;;;;;2062729;28;20033;-71
2021/11/14 00:41:58;;;;;;;15.25;13.73;;;11.50;99.90;;;;;;2070984;28;20108;-70
2021/11/14 00:43:00;;;;;;;13.82;12.52;;;11.50;99.90;;;;;;2071512;28;20029;-70
2021/11/14 00:44:01;;;;;;;15.13;13.20;;;11.50;99.90;;;;;;2071710;28;20402;-71
2021/11/14 00:45:02;;;;;;;15.00;13.40;;;11.50;99.90;;;;;;2067488;28;20077;-71
2021/11/14 00:46:05;;;;;;;13.15;11.85;;;11.50;99.90;;;;;;2057419;28;20061;-71
2021/11/14 00:47:06;;;;;;;14.82;12.23;;;11.50;99.90;;;;;;2063284;28;20022;-71
2021/11/14 00:48:07;;;;;;;14.02;12.63;;;11.50;99.90;;;;;;2074878;28;20108;-71
2021/11/14 00:49:08;;;;;;;12.82;11.60;;;11.50;99.90;;;;;;2071330;28;20474;-71
2021/11/14 00:50:11;;;;;;;13.75;12.13;;;11.50;99.90;;;;;;2071123;28;20056;-71
2021/11/14 00:51:15;;;;;;;13.43;12.13;;;11.50;99.90;;;;;;2071560;28;20041;-71
2021/11/14 00:52:16;;;;;;;14.10;12.65;;;11.50;99.90;;;;;;2071504;28;20069;-71
2021/11/14 00:53:20;;;;;;;14.18;12.45;;;11.50;99.90;;;;;;2071044;28;20026;-71
2021/11/14 00:54:21;;;;;;;13.77;12.35;;;11.50;99.90;;;;;;2062720;28;20026;-71
2021/11/14 00:55:21;;;;;;;14.45;12.98;;;11.50;99.90;;;;;;2068654;28;20027;-71
2021/11/14 00:56:22;;;;;;;14.70;13.18;;;11.50;99.90;;;;;;2071525;28;20061;-71
2021/11/14 00:57:23;;;;;;;13.65;12.45;;;11.50;99.90;;;;;;2071406;28;20034;-71
2021/11/14 00:58:25;;;;;;;13.38;12.07;;;11.50;99.90;;;;;;2070863;28;20029;-71
2021/11/14 00:59:26;;;;;;;13.98;12.65;;;11.50;99.90;;;;;;2071672;28;20025;-71
2021/11/14 01:00:28;;;;;;;14.07;12.10;;;11.50;99.90;;;;;;2068459;28;20629;-71
2021/11/14 01:01:29;;;;;;;13.60;12.30;;;11.50;99.90;;;;;;2071403;28;20041;-70
2021/11/14 01:02:29;;;;;;;13.30;12.07;;;11.50;99.90;;;;;;2070845;28;20120;-71
2021/11/14 01:03:30;;;;;;;16.17;13.60;;;11.50;99.90;;;;;;2071447;28;20026;-71
2021/11/14 01:04:30;;;;;;;13.77;12.48;;;11.50;99.90;;;;;;2071348;28;20084;-71
2021/11/14 01:05:33;;;;;;;14.07;12.85;;;11.50;99.90;;;;;;2071597;28;20053;-71
2021/11/14 01:06:33;;;;;;;14.98;13.38;;;11.50;99.90;;;;;;2071726;28;20025;-71
2021/11/14 01:07:34;;;;;;;13.82;12.43;;;11.50;99.90;;;;;;2071253;28;20033;-71
2021/11/14 01:08:35;;;;;;;12.93;11.65;;;11.40;99.90;;;;;;2070946;28;20026;-71
2021/11/14 01:09:35;;;;;;;14.27;12.88;;;11.40;99.90;;;;;;2071404;28;20083;-71
2021/11/14 01:10:42;;;;;;;13.75;12.15;;;11.50;99.90;;;;;;2070868;28;20472;-71
2021/11/14 01:11:42;;;;;;;13.40;12.00;;;11.40;99.90;;;;;;2071767;28;20413;-71
2021/11/14 01:12:43;;;;;;;14.07;12.55;;;11.50;99.90;;;;;;2071197;28;20022;-70
2021/11/14 01:13:45;;;;;;;13.52;12.25;;;11.40;99.90;;;;;;2071406;28;20022;-71
2021/11/14 01:14:46;;;;;;;13.70;12.25;;;11.40;99.90;;;;;;2071083;28;20018;-71
2021/11/14 01:15:50;;;;;;;14.30;12.75;;;11.40;99.90;;;;;;2070777;28;20096;-70
2021/11/14 01:16:51;;;;;;;12.40;11.18;;;11.40;99.90;;;;;;2070455;28;20052;-70
2021/11/14 01:17:52;;;;;;;12.25;11.02;;;11.40;99.90;;;;;;2064892;28;20033;-71
2021/11/14 01:18:53;;;;;;;14.20;12.80;;;11.40;99.90;;;;;;2070535;28;20061;-71
2021/11/14 01:19:53;;;;;;;11.82;10.75;;;11.40;99.90;;;;;;2071442;28;20022;-71
2021/11/14 01:20:57;;;;;;;12.88;11.68;;;11.40;99.90;;;;;;2070682;28;20072;-71
2021/11/14 01:21:57;;;;;;;13.85;11.75;;;11.40;99.90;;;;;;2070141;28;20099;-71
2021/11/14 01:22:59;;;;;;;13.20;11.88;;;11.40;99.90;;;;;;2063326;28;20122;-71
2021/11/14 01:24:00;;;;;;;13.80;12.55;;;11.40;99.90;;;;;;2069312;28;20030;-71
2021/11/14 01:25:01;;;;;;;11.75;10.60;;;11.40;99.90;;;;;;2071440;28;20113;-71
2021/11/14 01:26:02;;;;;;;13.00;11.70;;;11.40;99.90;;;;;;2071097;28;20029;-71
2021/11/14 01:27:03;;;;;;;11.43;10.35;;;11.40;99.90;;;;;;2071338;28;20521;-71
2021/11/14 01:28:05;;;;;;;11.90;10.82;;;11.40;99.90;;;;;;2071050;28;20371;-70
2021/11/14 01:29:06;;;;;;;12.82;11.57;;;11.40;99.90;;;;;;2064686;28;20034;-71
2021/11/14 01:30:11;;;;;;;11.80;10.65;;;11.40;99.90;;;;;;2071335;28;20104;-70
2021/11/14 01:31:11;;;;;;;11.95;10.18;;;11.40;99.90;;;;;;2070880;28;20026;-71
2021/11/14 01:32:12;;;;;;;11.55;10.35;;;11.40;99.90;;;;;;2071441;28;20066;-70
2021/11/14 01:33:14;;;;;;;12.60;11.40;;;11.40;99.90;;;;;;2070907;28;20486;-71
2021/11/14 01:34:15;;;;;;;11.60;10.50;;;11.40;99.90;;;;;;2070662;28;20524;-70
2021/11/14 01:35:17;;;;;;;11.05;10.05;;;11.40;99.90;;;;;;2071602;28;20034;-70
2021/11/14 01:36:17;;;;;;;11.85;10.77;;;11.40;99.90;;;;;;2071223;28;20026;-71
2021/11/14 01:37:18;;;;;;;11.70;10.60;;;11.40;99.90;;;;;;2071499;28;20028;-71
2021/11/14 01:38:19;;;;;;;12.27;11.07;;;11.40;99.90;;;;;;2070077;28;20109;-71
2021/11/14 01:39:19;;;;;;;12.52;11.00;;;11.40;99.90;;;;;;2069705;28;20021;-71
2021/11/14 01:40:24;;;;;;;11.27;10.15;;;11.40;99.90;;;;;;2071250;28;20030;-70
2021/11/14 01:41:25;;;;;;;11.40;10.30;;;11.40;99.90;;;;;;2070686;28;20022;-71
2021/11/14 01:42:26;;;;;;;10.18;9.27;;;11.40;99.90;;;;;;2071144;28;20136;-71
2021/11/14 01:43:31;;;;;;;10.98;9.88;;;11.40;99.90;;;;;;2071499;28;20100;-70
2021/11/14 01:44:31;;;;;;;12.35;11.15;;;11.40;99.90;;;;;;2071479;28;20061;-71
2021/11/14 01:45:32;;;;;;;10.82;9.82;;;11.40;99.90;;;;;;2071439;28;20041;-71
2021/11/14 01:46:32;;;;;;;13.10;11.43;;;11.40;99.90;;;;;;2070989;28;20041;-70
2021/11/14 01:47:33;;;;;;;13.68;10.27;;;11.40;99.90;;;;;;2071709;28;20053;-70
2021/11/14 01:48:34;;;;;;;11.68;10.48;;;11.40;99.90;;;;;;2070238;28;20057;-71
2021/11/14 01:49:35;;;;;;;10.43;9.43;;;11.40;99.90;;;;;;2071202;28;20029;-71
2021/11/14 01:50:37;;;;;;;12.35;11.07;;;11.40;99.90;;;;;;2071162;28;20033;-70
2021/11/14 01:51:38;;;;;;;12.75;10.85;;;11.40;99.90;;;;;;2071322;28;20375;-70
2021/11/14 01:52:41;;;;;;;10.75;9.70;;;11.40;99.90;;;;;;2070307;28;20034;-71
2021/11/14 01:53:41;;;;;;;10.05;9.15;;;11.40;99.90;;;;;;2071266;28;20057;-70
2021/11/14 01:54:42;;;;;;;9.35;8.55;;;11.40;99.90;;;;;;2071339;28;20022;-70
2021/11/14 01:55:43;;;;;;;11.32;10.13;;;11.40;99.90;;;;;;2071602;28;20087;-70
2021/11/14 01:56:45;;;;;;;10.80;9.70;;;11.40;99.90;;;;;;2070951;28;20038;-71
2021/11/14 01:57:46;;;;;;;10.32;9.32;;;11.40;99.90;;;;;;2071003;28;20159;-71
2021/11/14 01:58:47;;;;;;;11.52;9.77;;;11.40;99.90;;;;;;2069862;28;20133;-70
2021/11/14 01:59:49;;;;;;;9.52;8.63;;;11.40;99.90;;;;;;2070775;28;20057;-71
2021/11/14 02:00:57;;;;;;;10.10;9.13;;;11.40;99.90;;;;;;2070660;28;20072;-71
2021/11/14 02:01:57;;;;;;;10.10;9.15;;;11.40;99.90;;;;;;2070495;28;20105;-71
2021/11/14 02:02:58;;;;;;;10.02;9.02;;;11.40;99.90;;;;;;2071052;28;20029;-71
2021/11/14 02:04:03;;;;;;;10.88;9.77;;;11.40;99.90;;;;;;2070818;28;20029;-70
2021/11/14 02:05:05;;;;;;;11.88;10.20;;;11.40;99.90;;;;;;2069847;28;20105;-70
2021/11/14 02:06:07;;;;;;;10.30;9.30;;;11.40;99.90;;;;;;2068632;28;20442;-70
2021/11/14 02:07:11;;;;;;;10.88;9.88;;;11.30;99.90;;;;;;2071340;28;20030;-70
2021/11/14 02:08:13;;;;;;;11.00;10.00;;;11.40;99.90;;;;;;2070913;28;20433;-71
2021/11/14 02:09:15;;;;;;;10.40;8.85;;;11.30;99.90;;;;;;2071101;28;20764;-71
2021/11/14 02:10:15;;;;;;;9.75;8.88;;;11.40;99.90;;;;;;2071318;28;20045;-71
2021/11/14 02:11:20;;;;;;;13.27;9.60;;;11.30;99.90;;;;;;2070624;28;20029;-71
2021/11/14 02:12:20;;;;;;;10.85;9.75;;;11.30;99.90;;;;;;2070650;28;20520;-71
2021/11/14 02:13:21;;;;;;;10.57;9.57;;;11.40;99.90;;;;;;2070735;28;20496;-70
2021/11/14 02:14:23;;;;;;;11.32;9.30;;;11.30;99.90;;;;;;2071138;28;20029;-70
2021/11/14 02:15:23;;;;;;;11.50;10.30;;;11.30;99.90;;;;;;2072653;28;20018;-70
2021/11/14 02:16:26;;;;;;;10.88;9.65;;;11.30;99.90;;;;;;2072762;28;20080;-71
2021/11/14 02:17:27;;;;;;;11.02;9.93;;;11.30;99.90;;;;;;2072256;28;20033;-71
2021/11/14 02:18:28;;;;;;;11.75;9.27;;;11.30;99.90;;;;;;2072394;28;20040;-71
2021/11/14 02:19:28;;;;;;;8.88;8.07;;;11.30;99.90;;;;;;2072606;28;20105;-71
2021/11/14 02:20:29;;;;;;;10.00;9.00;;;11.30;99.90;;;;;;2072516;28;20029;-71
2021/11/14 02:21:30;;;;;;;11.85;9.27;;;11.30;99.90;;;;;;2071923;28;20367;-71
2021/11/14 02:22:31;;;;;;;8.90;8.00;;;11.30;99.90;;;;;;2072461;28;20022;-71
2021/11/14 02:23:32;;;;;;;9.15;8.32;;;11.30;99.90;;;;;;2072390;28;20030;-70
2021/11/14 02:24:33;;;;;;;9.75;8.88;;;11.30;99.90;;;;;;2072846;28;20037;-70
2021/11/14 02:25:34;;;;;;;12.60;8.27;;;11.30;99.90;;;;;;2072489;28;20025;-70
2021/11/14 02:26:34;;;;;;;11.48;10.10;;;11.30;99.90;;;;;;2072492;28;20041;-70
2021/11/14 02:27:35;;;;;;;10.05;9.00;;;11.30;99.90;;;;;;2072802;28;20069;-70
2021/11/14 02:28:36;;;;;;;9.85;8.82;;;11.30;99.90;;;;;;2071994;28;20037;-70
2021/11/14 02:29:37;;;;;;;10.43;8.98;;;11.20;99.90;;;;;;2072560;28;20025;-70
2021/11/14 02:30:38;;;;;;;10.73;9.15;;;11.20;99.90;;;;;;2072350;28;20085;-70
2021/11/14 02:31:39;;;;;;;11.05;9.95;;;11.20;99.90;;;;;;2072450;28;20025;-70
2021/11/14 02:32:40;;;;;;;11.93;9.52;;;11.20;99.90;;;;;;2072428;28;20033;-71
2021/11/14 02:33:41;;;;;;;10.95;9.82;;;11.20;99.90;;;;;;2072823;28;20026;-71
2021/11/14 02:34:41;;;;;;;10.88;9.77;;;11.20;99.90;;;;;;2070915;28;20022;-71
2021/11/14 02:35:45;;;;;;;10.35;9.27;;;11.20;99.90;;;;;;2072534;28;20087;-71
2021/11/14 02:36:45;;;;;;;13.38;9.50;;;11.20;99.90;;;;;;2072203;28;20026;-71
2021/11/14 02:37:46;;;;;;;13.85;10.57;;;11.20;99.90;;;;;;2072688;28;20050;-70
2021/11/14 02:38:47;;;;;;;13.50;9.05;;;11.10;99.90;;;;;;2072011;28;20037;-71
2021/11/14 02:39:47;;;;;;;13.15;9.82;;;11.10;99.90;;;;;;2072407;28;20076;-71
2021/11/14 02:40:50;;;;;;;10.75;9.65;;;11.10;99.90;;;;;;2072410;28;20116;-71
2021/11/14 02:41:51;;;;;;;10.50;9.38;;;11.10;99.90;;;;;;2067128;28;20056;-71
2021/11/14 02:42:52;;;;;;;10.85;9.73;;;11.10;99.90;;;;;;2070635;28;20028;-71
2021/11/14 02:43:54;;;;;;;11.38;9.75;;;11.10;99.90;;;;;;2072220;28;20073;-70
2021/11/14 02:44:55;;;;;;;10.73;9.63;;;11.10;99.90;;;;;;2072203;28;20109;-70
2021/11/14 02:45:56;;;;;;;10.13;9.10;;;11.10;99.90;;;;;;2071893;28;20503;-70
2021/11/14 02:46:58;;;;;;;10.80;8.80;;;11.10;99.90;;;;;;2072300;28;20060;-70
2021/11/14 02:47:58;;;;;;;12.43;9.85;;;11.00;99.90;;;;;;2072844;28;20022;-71
2021/11/14 02:48:59;;;;;;;12.13;10.75;;;11.00;99.90;;;;;;2066698;28;20023;-71
2021/11/14 02:50:00;;;;;;;13.18;10.25;;;11.00;99.90;;;;;;2068573;28;20026;-71
2021/11/14 02:51:03;;;;;;;10.95;9.85;;;11.00;99.90;;;;;;2071752;28;20030;-70
2021/11/14 02:52:05;;;;;;;13.57;12.18;;;11.00;99.90;;;;;;2072589;28;20037;-71
2021/11/14 02:53:07;;;;;;;15.80;13.43;;;11.00;99.90;;;;;;2068540;28;20027;-71
2021/11/14 02:54:08;;;;;;;15.02;13.25;;;10.90;99.90;;;;;;2068123;28;20359;-71
2021/11/14 02:55:12;;;;;;;17.70;15.90;;;10.90;99.90;;;;;;2074544;28;20096;-71
2021/11/14 02:56:13;;;;;;;18.38;16.27;;;10.90;99.90;;;;;;2068998;28;20022;-71
2021/11/14 02:57:14;;;;;;;15.43;13.13;;;10.80;99.90;;;;;;2080506;28;20071;-71
2021/11/14 02:58:16;;;;;;;16.13;14.52;;;10.80;99.90;;;;;;2067284;28;20018;-71
2021/11/14 02:59:17;;;;;;;20.38;17.95;;;10.80;99.90;;;;;;2071345;28;20034;-70
2021/11/14 03:00:24;;;;;;;19.50;17.10;;;10.80;99.90;;;;;;2072695;28;20076;-70
2021/11/14 03:01:29;;;;;;;20.63;18.20;;;10.80;99.90;;;;;;2072234;28;20556;-70
2021/11/14 03:02:30;;;;;;;24.25;20.60;;;10.80;99.90;;;;;;2071586;28;20458;-71
2021/11/14 03:03:31;;;;;;;18.67;16.67;;;10.80;99.90;;;;;;2071741;28;20017;-71
2021/11/14 03:04:32;;;;;;;20.52;18.50;;;10.80;99.90;;;;;;2072469;28;20034;-70
2021/11/14 03:05:33;;;;;;;24.25;21.30;;;10.80;99.90;;;;;;2072033;28;20034;-70
2021/11/14 03:06:34;;;;;;;24.80;22.15;;;10.80;99.90;;;;;;2072492;28;20097;-70
2021/11/14 03:07:35;;;;;;;23.58;21.10;;;10.80;99.90;;;;;;2071881;28;20044;-71
2021/11/14 03:08:36;;;;;;;22.83;20.45;;;10.70;99.90;;;;;;2071924;28;20022;-70
2021/11/14 03:09:37;;;;;;;26.02;20.65;;;10.80;99.90;;;;;;2072110;28;20024;-71
2021/11/14 03:10:38;;;;;;;22.65;19.88;;;10.70;99.90;;;;;;2072227;28;20026;-70
2021/11/14 03:11:39;;;;;;;25.42;19.33;;;10.70;99.90;;;;;;2072159;28;20635;-70
2021/11/14 03:12:40;;;;;;;23.70;20.20;;;10.70;99.90;;;;;;2072337;28;20041;-70
2021/11/14 03:13:42;;;;;;;24.10;20.38;;;10.70;99.90;;;;;;2072043;28;20378;-70
2021/11/14 03:14:42;;;;;;;23.98;19.33;;;10.70;99.90;;;;;;2072519;28;20105;-70
2021/11/14 03:15:47;;;;;;;20.90;18.48;;;10.70;99.90;;;;;;2071945;28;20025;-70
2021/11/14 03:16:48;;;;;;;20.92;18.02;;;10.70;99.90;;;;;;2071797;28;20164;-70
2021/11/14 03:17:48;;;;;;;20.70;18.40;;;10.70;99.90;;;;;;2071835;28;20026;-70
2021/11/14 03:18:49;;;;;;;18.92;16.10;;;10.60;99.90;;;;;;2071713;28;20068;-70
2021/11/14 03:19:50;;;;;;;17.50;15.70;;;10.60;99.90;;;;;;2071932;28;21030;-70
2021/11/14 03:20:51;;;;;;;20.05;16.10;;;10.60;99.90;;;;;;2071589;28;20025;-70
2021/11/14 03:21:52;;;;;;;17.77;14.75;;;10.60;99.90;;;;;;2072094;28;20021;-70
2021/11/14 03:22:53;;;;;;;15.30;13.70;;;10.60;99.90;;;;;;2072053;28;20038;-70
2021/11/14 03:23:54;;;;;;;17.63;14.48;;;10.60;99.90;;;;;;2072188;28;20045;-71
2021/11/14 03:24:55;;;;;;;16.67;14.43;;;10.60;99.90;;;;;;2072222;28;20022;-71
2021/11/14 03:25:57;;;;;;;15.35;13.70;;;10.50;99.90;;;;;;2071370;28;20600;-70
2021/11/14 03:26:57;;;;;;;15.75;13.95;;;10.50;99.90;;;;;;2071434;28;20030;-70
2021/11/14 03:27:59;;;;;;;18.92;14.38;;;10.50;99.90;;;;;;2071201;28;20101;-71
2021/11/14 03:28:59;;;;;;;15.25;13.65;;;10.50;99.90;;;;;;2071497;28;20034;-71
2021/11/14 03:30:00;;;;;;;16.45;14.73;;;10.50;99.90;;;;;;2072010;28;20564;-71
2021/11/14 03:31:01;;;;;;;15.45;13.90;;;10.50;99.90;;;;;;2067578;28;20161;-70
2021/11/14 03:32:03;;;;;;;15.32;12.50;;;10.50;99.90;;;;;;2069690;28;20026;-71
2021/11/14 03:33:06;;;;;;;14.48;12.98;;;10.50;99.90;;;;;;2072212;28;20041;-70
2021/11/14 03:34:08;;;;;;;16.00;14.02;;;10.50;99.90;;;;;;2071236;28;20034;-71
2021/11/14 03:35:09;;;;;;;16.27;14.55;;;10.50;99.90;;;;;;2071831;28;20018;-70
2021/11/14 03:36:15;;;;;;;17.13;14.90;;;10.50;99.90;;;;;;2071881;28;20053;-70
2021/11/14 03:37:20;;;;;;;18.02;15.98;;;10.50;99.90;;;;;;2072299;28;20100;-71
2021/11/14 03:38:25;;;;;;;18.77;16.80;;;10.50;99.90;;;;;;2071522;28;20030;-71
2021/11/14 03:39:26;;;;;;;18.73;15.85;;;10.50;99.90;;;;;;2072431;28;20069;-70
2021/11/14 03:40:26;;;;;;;15.82;14.10;;;10.40;99.90;;;;;;2071304;28;20084;-70
2021/11/14 03:41:34;;;;;;;18.38;16.30;;;10.50;99.90;;;;;;2071142;28;20053;-71
2021/11/14 03:42:35;;;;;;;18.05;15.90;;;10.50;99.90;;;;;;2069214;28;20057;-71
2021/11/14 03:43:37;;;;;;;15.48;13.68;;;10.50;99.90;;;;;;2075349;28;20021;-70
2021/11/14 03:44:40;;;;;;;19.80;15.70;;;10.50;99.90;;;;;;2075057;28;20030;-70
2021/11/14 03:45:41;;;;;;;22.63;17.48;;;10.50;99.90;;;;;;2071791;28;20021;-71
2021/11/14 03:46:42;;;;;;;18.60;16.45;;;10.50;99.90;;;;;;2069508;28;20044;-71
2021/11/14 03:47:43;;;;;;;20.05;17.80;;;10.50;99.90;;;;;;2071925;28;20050;-71
2021/11/14 03:48:46;;;;;;;26.83;20.33;;;10.50;99.90;;;;;;2071560;28;20104;-71
2021/11/14 03:49:46;;;;;;;22.55;18.63;;;10.50;99.90;;;;;;2072056;28;20037;-71
2021/11/14 03:50:47;;;;;;;27.10;20.88;;;10.50;99.90;;;;;;2071327;28;20040;-70
2021/11/14 03:51:47;;;;;;;31.05;21.85;;;10.40;99.90;;;;;;2071154;28;20029;-70
2021/11/14 03:52:48;;;;;;;30.90;21.88;;;10.40;99.90;;;;;;2071242;28;20521;-70
2021/11/14 03:53:50;;;;;;;24.75;18.75;;;10.40;99.90;;;;;;2064133;28;20036;-71
2021/11/14 03:54:51;;;;;;;22.20;17.77;;;10.40;99.90;;;;;;2069967;28;20052;-71
2021/11/14 03:55:52;;;;;;;18.58;15.23;;;10.40;99.90;;;;;;2072331;28;20026;-71
2021/11/14 03:56:54;;;;;;;16.58;14.85;;;10.30;99.90;;;;;;2071704;28;20034;-71
2021/11/14 03:57:54;;;;;;;15.88;14.18;;;10.30;99.90;;;;;;2071568;28;20025;-71
2021/11/14 03:58:55;;;;;;;16.33;13.63;;;10.30;99.90;;;;;;2071081;28;20164;-70
2021/11/14 03:59:56;;;;;;;16.13;14.07;;;10.30;99.90;;;;;;2071906;28;20544;-70
2021/11/14 04:00:59;;;;;;;17.17;14.50;;;10.30;99.90;;;;;;2071748;28;20063;-70
2021/11/14 04:02:01;;;;;;;14.43;12.90;;;10.30;99.90;;;;;;2072050;28;20113;-70
2021/11/14 04:03:02;;;;;;;15.93;12.07;;;10.30;99.90;;;;;;2071638;28;20033;-70
2021/11/14 04:04:03;;;;;;;18.30;13.63;;;10.30;99.90;;;;;;2071920;28;20029;-70
2021/11/14 04:05:04;;;;;;;15.85;12.68;;;10.30;99.90;;;;;;2071824;28;20054;-70
2021/11/14 04:06:06;;;;;;;14.85;12.88;;;10.30;99.90;;;;;;2071881;28;20033;-70
2021/11/14 04:07:06;;;;;;;15.07;12.80;;;10.30;99.90;;;;;;2071315;28;20022;-70
2021/11/14 04:08:10;;;;;;;16.55;14.23;;;10.30;99.90;;;;;;2071559;28;20093;-70
2021/11/14 04:09:10;;;;;;;16.95;12.95;;;10.30;99.90;;;;;;2071690;28;20486;-70
2021/11/14 04:10:13;;;;;;;17.52;13.30;;;10.20;99.90;;;;;;2071651;28;20476;-70
2021/11/14 04:11:14;;;;;;;20.98;16.13;;;10.30;99.90;;;;;;2071932;28;20033;-70
2021/11/14 04:12:14;;;;;;;17.38;14.90;;;10.20;99.90;;;;;;2072136;28;20084;-70
2021/11/14 04:13:16;;;;;;;18.15;14.93;;;10.20;99.90;;;;;;2071946;28;20054;-71
2021/11/14 04:14:17;;;;;;;19.35;15.65;;;10.20;99.90;;;;;;2071636;28;20026;-71
2021/11/14 04:15:18;;;;;;;20.10;16.70;;;10.20;99.90;;;;;;2071937;28;20104;-71
2021/11/14 04:16:19;;;;;;;22.90;17.02;;;10.20;99.90;;;;;;2070777;28;20097;-71
2021/11/14 04:17:20;;;;;;;20.08;16.63;;;10.20;99.90;;;;;;2071261;28;20486;-71
2021/11/14 04:18:20;;;;;;;30.10;22.70;;;10.20;99.90;;;;;;2070132;28;20033;-70
2021/11/14 04:19:21;;;;;;;27.77;21.95;;;10.20;99.90;;;;;;2072144;28;20037;-70
2021/11/14 04:20:27;;;;;;;24.13;18.38;;;10.20;99.90;;;;;;2070646;28;20460;-70
2021/11/14 04:21:27;;;;;;;19.73;16.95;;;10.20;99.90;;;;;;2071944;28;20025;-70
2021/11/14 04:22:28;;;;;;;18.33;14.43;;;10.10;99.90;;;;;;2071787;28;20025;-70
2021/11/14 04:23:29;;;;;;;18.35;14.73;;;10.10;99.90;;;;;;2071903;28;20520;-71
2021/11/14 04:24:29;;;;;;;19.92;14.32;;;10.10;99.90;;;;;;2071666;28;20481;-70
2021/11/14 04:25:30;;;;;;;18.33;14.85;;;10.10;99.90;;;;;;2071874;28;20438;-70
2021/11/14 04:26:31;;;;;;;17.77;15.15;;;10.10;99.90;;;;;;2071589;28;20038;-70
2021/11/14 04:27:32;;;;;;;19.35;16.02;;;10.10;99.90;;;;;;2071696;28;20463;-71
2021/11/14 04:28:34;;;;;;;18.20;14.65;;;10.10;99.90;;;;;;2070693;28;20045;-71
2021/11/14 04:29:35;;;;;;;20.67;17.48;;;10.10;99.90;;;;;;2071475;28;20036;-70
2021/11/14 04:30:35;;;;;;;20.67;17.50;;;10.10;99.90;;;;;;2071836;28;20061;-71
2021/11/14 04:31:36;;;;;;;21.17;18.02;;;10.10;99.90;;;;;;2071171;28;20030;-71
2021/11/14 04:32:37;;;;;;;20.10;17.73;;;10.10;99.90;;;;;;2071624;28;20454;-70
2021/11/14 04:33:38;;;;;;;23.98;18.20;;;10.10;99.90;;;;;;2071891;28;20405;-70
2021/11/14 04:34:40;;;;;;;22.65;18.27;;;10.10;99.90;;;;;;2071433;28;20022;-71
2021/11/14 04:35:41;;;;;;;20.98;18.58;;;10.00;99.90;;;;;;2071856;28;20025;-71
2021/11/14 04:36:42;;;;;;;22.27;17.85;;;10.00;99.90;;;;;;2071322;28;20710;-71
2021/11/14 04:37:43;;;;;;;25.40;20.42;;;10.00;99.90;;;;;;2068880;28;20441;-71
2021/11/14 04:38:43;;;;;;;28.02;21.45;;;10.00;99.90;;;;;;2069140;28;20021;-71
2021/11/14 04:39:44;;;;;;;27.17;22.23;;;10.00;99.90;;;;;;2070896;28;20029;-71
2021/11/14 04:40:46;;;;;;;26.85;20.83;;;10.00;99.90;;;;;;2071038;28;20106;-71
2021/11/14 04:41:46;;;;;;;27.45;21.15;;;10.00;99.90;;;;;;2066944;28;20509;-71
2021/11/14 04:42:47;;;;;;;29.60;23.02;;;10.00;99.90;;;;;;2069393;28;20360;-71
2021/11/14 04:43:47;;;;;;;33.47;22.75;;;10.00;99.90;;;;;;2071646;28;20089;-71
2021/11/14 04:44:48;;;;;;;27.58;20.83;;;9.90;99.90;;;;;;2071353;28;20013;-71
2021/11/14 04:45:50;;;;;;;31.67;23.30;;;9.90;99.90;;;;;;2071803;28;20050;-71
2021/11/14 04:46:52;;;;;;;29.17;22.48;;;9.90;99.90;;;;;;2071318;28;20037;-70
2021/11/14 04:47:52;;;;;;;28.08;21.98;;;9.90;99.90;;;;;;2071440;28;20030;-70
2021/11/14 04:48:53;;;;;;;27.98;21.77;;;9.90;99.90;;;;;;2070957;28;20074;-70
2021/11/14 04:49:54;;;;;;;27.92;21.77;;;9.90;99.90;;;;;;2071974;28;20026;-71
2021/11/14 04:50:54;;;;;;;31.55;21.77;;;9.90;99.90;;;;;;2068465;28;20462;-70
2021/11/14 04:51:55;;;;;;;26.63;22.20;;;9.90;99.90;;;;;;2078821;28;20077;-70
2021/11/14 04:52:56;;;;;;;27.48;20.85;;;9.80;99.90;;;;;;2078707;28;20053;-70
2021/11/14 04:53:56;;;;;;;27.77;21.55;;;9.80;99.90;;;;;;2071666;28;20057;-70
2021/11/14 04:54:57;;;;;;;26.75;21.00;;;9.80;99.90;;;;;;2071442;28;20092;-70
2021/11/14 04:55:57;;;;;;;28.70;21.20;;;9.80;99.90;;;;;;2071467;28;20034;-70
2021/11/14 04:56:58;;;;;;;28.48;22.65;;;9.80;99.90;;;;;;2071747;28;20030;-70
2021/11/14 04:57:59;;;;;;;29.45;22.05;;;9.80;99.90;;;;;;2071540;28;20041;-70
2021/11/14 04:58:59;;;;;;;28.33;20.55;;;9.80;99.90;;;;;;2070885;28;20028;-70
2021/11/14 05:00:00;;;;;;;26.77;21.65;;;9.80;99.90;;;;;;2071260;28;20064;-70
2021/11/14 05:01:00;;;;;;;24.40;20.98;;;9.80;99.90;;;;;;2070865;28;20108;-70
2021/11/14 05:02:02;;;;;;;24.48;20.20;;;9.80;99.90;;;;;;2070847;28;20026;-70
2021/11/14 05:03:03;;;;;;;25.40;19.98;;;9.80;99.90;;;;;;2078676;28;20041;-70
2021/11/14 05:04:04;;;;;;;28.63;20.92;;;9.80;99.90;;;;;;2071352;28;20039;-70
2021/11/14 05:05:06;;;;;;;23.40;20.13;;;9.80;99.90;;;;;;2070591;28;20038;-70
2021/11/14 05:06:09;;;;;;;21.55;19.00;;;9.70;99.90;;;;;;2071191;28;20025;-70
2021/11/14 05:07:10;;;;;;;22.55;19.15;;;9.70;99.90;;;;;;2071335;28;20528;-70
2021/11/14 05:08:11;;;;;;;21.83;19.42;;;9.70;99.90;;;;;;2071086;28;20398;-70
2021/11/14 05:09:12;;;;;;;23.08;19.10;;;9.70;99.90;;;;;;2071826;28;20030;-70
2021/11/14 05:10:13;;;;;;;23.27;20.17;;;9.70;99.90;;;;;;2071603;28;20091;-70
2021/11/14 05:11:13;;;;;;;21.52;19.23;;;9.70;99.90;;;;;;2071665;28;20138;-70
2021/11/14 05:12:14;;;;;;;22.42;18.45;;;9.70;99.90;;;;;;2071482;28;20029;-70
2021/11/14 05:13:14;;;;;;;22.33;19.17;;;9.70;99.90;;;;;;2071298;28;20424;-71